createdAt,value
2017-03-13T22:38:46.365Z,7.81
2017-03-13T22:39:46.322Z,7.82
2017-03-13T22:40:46.292Z,7.77
2017-03-13T22:41:46.265Z,7.79
2017-03-13T22:42:45.850Z,7.76
2017-03-13T22:43:46.252Z,7.77
2017-03-13T22:44:46.169Z,7.77
2017-03-13T22:45:46.148Z,7.77
2017-03-13T22:46:46.129Z,7.71
2017-03-13T22:47:46.094Z,7.71
2017-03-13T22:48:46.062Z,7.67
2017-03-13T22:49:45.657Z,7.67
2017-03-13T22:50:45.640Z,7.73
2017-03-13T22:51:45.989Z,7.7
2017-03-13T22:52:45.976Z,7.7
2017-03-13T22:53:45.556Z,7.74
2017-03-13T22:54:45.966Z,7.7
2017-03-13T22:55:45.890Z,7.71
2017-03-13T22:56:45.864Z,7.58
2017-03-13T22:57:45.846Z,7.69
2017-03-13T22:58:45.820Z,7.63
2017-03-13T22:59:45.801Z,7.76
2017-03-13T23:00:45.823Z,7.55
2017-03-13T23:01:45.750Z,7.66
2017-03-13T23:02:45.731Z,7.62
2017-03-13T23:03:45.692Z,7.66
2017-03-13T23:04:45.289Z,7.63
2017-03-13T23:05:45.650Z,7.57
2017-03-13T23:06:45.629Z,7.6
2017-03-13T23:07:45.599Z,7.63
2017-03-13T23:08:45.828Z,7.62
2017-03-13T23:09:45.617Z,7.51
2017-03-13T23:10:45.584Z,7.67
2017-03-13T23:11:45.508Z,7.52
2017-03-13T23:12:45.685Z,7.57
2017-03-13T23:13:45.462Z,7.57
2017-03-13T23:14:45.102Z,7.54
2017-03-13T23:15:45.414Z,7.51
2017-03-13T23:16:45.406Z,7.51
2017-03-13T23:17:45.362Z,7.55
2017-03-13T23:18:45.344Z,7.5
2017-03-13T23:19:45.319Z,7.47
2017-03-13T23:20:45.299Z,7.5
2017-03-13T23:21:45.277Z,7.52
2017-03-13T23:22:45.243Z,7.5
2017-03-13T23:23:45.230Z,7.37
2017-03-13T23:24:45.206Z,7.44
2017-03-13T23:25:45.176Z,7.44
2017-03-13T23:26:45.156Z,7.41
2017-03-13T23:27:45.131Z,7.39
2017-03-13T23:28:45.118Z,7.39
2017-03-13T23:29:45.088Z,7.34
2017-03-13T23:30:45.062Z,7.32
2017-03-13T23:31:45.038Z,7.39
2017-03-13T23:32:45.017Z,7.33
2017-03-13T23:33:45.002Z,7.23
2017-03-13T23:34:44.978Z,7.33
2017-03-13T23:35:44.958Z,7.33
2017-03-13T23:36:44.916Z,7.27
2017-03-13T23:37:44.903Z,7.26
2017-03-13T23:38:44.893Z,7.26
2017-03-13T23:39:44.850Z,7.29
2017-03-13T23:40:44.829Z,7.27
2017-03-13T23:41:44.800Z,7.23
2017-03-13T23:42:44.780Z,7.27
2017-03-13T23:43:44.754Z,7.23
2017-03-13T23:44:44.732Z,7.21
2017-03-13T23:45:44.707Z,7.21
2017-03-13T23:46:44.698Z,7.21
2017-03-13T23:47:44.666Z,7.16
2017-03-13T23:48:44.637Z,7.12
2017-03-13T23:49:44.616Z,7.19
2017-03-13T23:50:44.593Z,7.16
2017-03-13T23:51:44.565Z,7.19
2017-03-13T23:52:44.548Z,7.16
2017-03-13T23:53:44.149Z,7.12
2017-03-13T23:54:44.499Z,7.09
2017-03-13T23:55:44.475Z,7.07
2017-03-13T23:56:44.453Z,7.09
2017-03-13T23:57:44.472Z,7.11
2017-03-13T23:58:44.450Z,7.05
2017-03-13T23:59:44.384Z,7.05
